Time;durP1;ratioP1;P1;durP2;ratioP2;P2;SDS_P1;SDS_P2;PMS_P1;PMS_P2;Temp;Humidity;BMP_temperature;BMP_pressure;BME280_temperature;BME280_humidity;BME280_pressure;Samples;Min_cycle;Max_cycle;Signal;HPM_P1;HPM_P2
2023/06/22 00:01:12;;;;;;;;;;;;;;;;;;13010503;19;19914;-62
2023/06/22 00:05:29;;;;;;;;;;;;;;;;;;13011383;19;20303;-62
2023/06/22 00:09:48;;;;;;;;;;;;;;;;;;13011528;19;20254;-61
2023/06/22 00:14:06;;;;;;;;;;;;;;;;;;13010323;19;19924;-63
2023/06/22 00:18:27;;;;;;;;;;;;;;;;;;13010281;19;19919;-61
2023/06/22 00:22:45;;;;;;;;;;;;;;;;;;13010828;19;19914;-62
2023/06/22 00:27:05;;;;;;;;;;;;;;;;;;13008555;19;19942;-62
2023/06/22 00:31:22;;;;;;;;;;;;;;;;;;13010076;19;19922;-62
2023/06/22 00:35:41;;;;;;;;;;;;;;;;;;13009684;19;19919;-62
2023/06/22 00:39:59;;;;;;;;;;;;;;;;;;13009684;19;19915;-61
2023/06/22 00:44:18;;;;;;;;;;;;;;;;;;13007395;19;20327;-62
2023/06/22 00:48:36;;;;;;;;;;;;;;;;;;13006544;19;19915;-62
2023/06/22 00:52:56;;;;;;;;;;;;;;;;;;13007307;19;19966;-62
2023/06/22 00:57:15;;;;;;;;;;;;;;;;;;13009054;19;19925;-61
2023/06/22 01:01:34;;;;;;;;;;;;;;;;;;13007092;19;20256;-62
2023/06/22 01:05:53;;;;;;;;;;;;;;;;;;13008695;19;19911;-62
2023/06/22 01:10:39;;;;;;;;;;;;;;;;;;13006985;19;20263;-61
2023/06/22 01:15:09;;;;;;;;;;;;;;;;;;13006676;19;19911;-61
2023/06/22 01:19:58;;;;;;;;;;;;;;;;;;13006460;19;19996;-62
2023/06/22 01:24:48;;;;;;;;;;;;;;;;;;13006253;19;19922;-61
2023/06/22 01:29:07;;;;;;;;;;;;;;;;;;13005684;19;19906;-61
2023/06/22 01:33:25;;;;;;;;;;;;;;;;;;13004939;19;20238;-61
2023/06/22 01:37:45;;;;;;;;;;;;;;;;;;13006787;19;19919;-63
2023/06/22 01:42:03;;;;;;;;;;;;;;;;;;13005145;19;20232;-61
2023/06/22 01:46:21;;;;;;;;;;;;;;;;;;13005552;19;19950;-61
2023/06/22 01:50:40;;;;;;;;;;;;;;;;;;13005525;19;19907;-62
2023/06/22 01:54:57;;;;;;;;;;;;;;;;;;13004484;19;19911;-62
2023/06/22 01:59:28;;;;;;;;;;;;;;;;;;13004213;19;19939;-61
2023/06/22 02:03:50;;;;;;;;;;;;;;;;;;13004748;19;19915;-61
2023/06/22 02:08:22;;;;;;;;;;;;;;;;;;13004093;19;19929;-62
2023/06/22 02:12:42;;;;;;;;;;;;;;;;;;13004883;19;19915;-61
2023/06/22 02:16:59;;;;;;;;;;;;;;;;;;13002698;19;20275;-60
2023/06/22 02:21:19;;;;;;;;;;;;;;;;;;13003296;19;19934;-60
2023/06/22 02:25:38;;;;;;;;;;;;;;;;;;13002985;19;19919;-61
2023/06/22 02:29:55;;;;;;;;;;;;;;;;;;13002540;19;19911;-60
2023/06/22 02:34:17;;;;;;;;;;;;;;;;;;13002385;19;20342;-61
2023/06/22 02:38:36;;;;;;;;;;;;;;;;;;13003375;19;19911;-61
2023/06/22 02:42:58;;;;;;;;;;;;;;;;;;13002605;19;19930;-61
2023/06/22 02:47:15;;;;;;;;;;;;;;;;;;13002829;19;20254;-61
2023/06/22 02:51:39;;;;;;;;;;;;;;;;;;13002394;19;19935;-62
2023/06/22 02:55:57;;;;;;;;;;;;;;;;;;13002907;19;19954;-61
2023/06/22 03:00:18;;;;;;;;;;;;;;;;;;13001894;19;19907;-60
2023/06/22 03:04:36;;;;;;;;;;;;;;;;;;13001513;19;19910;-60
2023/06/22 03:09:04;;;;;;;;;;;;;;;;;;13003938;19;19911;-60
2023/06/22 03:13:22;;;;;;;;;;;;;;;;;;13014545;19;19910;-61
2023/06/22 03:17:41;;;;;;;;;;;;;;;;;;13014067;19;19918;-61
2023/06/22 03:22:00;;;;;;;;;;;;;;;;;;13013960;19;19915;-61
2023/06/22 03:26:19;;;;;;;;;;;;;;;;;;13012510;19;20236;-60
2023/06/22 03:30:36;;;;;;;;;;;;;;;;;;13013436;19;19910;-60
2023/06/22 03:34:54;;;;;;;;;;;;;;;;;;13013406;19;19915;-62
2023/06/22 03:39:11;;;;;;;;;;;;;;;;;;13012328;19;19911;-61
2023/06/22 03:43:29;;;;;;;;;;;;;;;;;;13012268;19;19911;-62
2023/06/22 03:47:47;;;;;;;;;;;;;;;;;;13012535;19;19918;-62
2023/06/22 03:52:05;;;;;;;;;;;;;;;;;;13011698;19;20239;-62
2023/06/22 03:56:24;;;;;;;;;;;;;;;;;;13011879;19;19923;-62
2023/06/22 04:00:42;;;;;;;;;;;;;;;;;;13012114;19;20264;-61
2023/06/22 04:05:00;;;;;;;;;;;;;;;;;;13011217;19;19939;-62
2023/06/22 04:09:21;;;;;;;;;;;;;;;;;;13011480;19;19914;-62
2023/06/22 04:13:39;;;;;;;;;;;;;;;;;;13011804;19;19930;-62
2023/06/22 04:17:57;;;;;;;;;;;;;;;;;;13010934;19;19922;-62
2023/06/22 04:22:16;;;;;;;;;;;;;;;;;;13010154;19;19911;-61
2023/06/22 04:26:36;;;;;;;;;;;;;;;;;;13009613;19;19923;-61
2023/06/22 04:30:58;;;;;;;;;;;;;;;;;;13010282;19;19914;-62
2023/06/22 04:35:16;;;;;;;;;;;;;;;;;;13010086;19;20323;-62
2023/06/22 04:39:33;;;;;;;;;;;;;;;;;;13009635;19;19907;-62
2023/06/22 04:43:53;;;;;;;;;;;;;;;;;;13009502;19;19939;-62
2023/06/22 04:48:15;;;;;;;;;;;;;;;;;;13008910;19;19914;-61
2023/06/22 04:52:34;;;;;;;;;;;;;;;;;;13009348;19;19946;-62
2023/06/22 04:56:57;;;;;;;;;;;;;;;;;;13009392;19;19910;-61
2023/06/22 05:01:15;;;;;;;;;;;;;;;;;;13007930;19;20241;-62
2023/06/22 05:05:35;;;;;;;;;;;;;;;;;;13008504;19;19930;-62
2023/06/22 05:09:52;;;;;;;;;;;;;;;;;;13008420;19;19991;-62
2023/06/22 05:14:10;;;;;;;;;;;;;;;;;;13006928;19;19926;-62
2023/06/22 05:18:29;;;;;;;;;;;;;;;;;;13007036;19;20368;-62
2023/06/22 05:22:48;;;;;;;;;;;;;;;;;;13007203;19;19922;-62
2023/06/22 05:27:06;;;;;;;;;;;;;;;;;;13005453;19;19943;-62
2023/06/22 05:31:24;;;;;;;;;;;;;;;;;;13005449;19;19926;-62
2023/06/22 05:35:42;;;;;;;;;;;;;;;;;;13006244;19;19950;-62
2023/06/22 05:39:59;;;;;;;;;;;;;;;;;;13006330;19;19935;-62
2023/06/22 05:44:17;;;;;;;;;;;;;;;;;;13004609;19;19911;-62
2023/06/22 05:48:35;;;;;;;;;;;;;;;;;;13005309;19;20311;-62
2023/06/22 05:52:53;;;;;;;;;;;;;;;;;;13005565;19;19914;-62
2023/06/22 05:57:10;;;;;;;;;;;;;;;;;;13005241;19;19935;-62
2023/06/22 06:01:34;;;;;;;;;;;;;;;;;;13005673;19;19947;-62
2023/06/22 06:05:54;;;;;;;;;;;;;;;;;;13004888;19;19911;-62
2023/06/22 06:10:13;;;;;;;;;;;;;;;;;;13002820;19;20334;-61
2023/06/22 06:14:30;;;;;;;;;;;;;;;;;;13004515;19;19911;-62
2023/06/22 06:18:50;;;;;;;;;;;;;;;;;;13005148;19;20323;-61
2023/06/22 06:23:07;;;;;;;;;;;;;;;;;;13003838;19;19935;-62
2023/06/22 06:27:29;;;;;;;;;;;;;;;;;;13001827;19;20247;-62
2023/06/22 06:31:47;;;;;;;;;;;;;;;;;;13004363;19;19922;-62
2023/06/22 06:36:08;;;;;;;;;;;;;;;;;;13002588;19;19914;-62
2023/06/22 06:40:26;;;;;;;;;;;;;;;;;;13003216;19;20327;-62
2023/06/22 06:44:44;;;;;;;;;;;;;;;;;;12999763;19;20247;-62
2023/06/22 06:49:02;;;;;;;;;;;;;;;;;;13002005;19;19939;-62
2023/06/22 06:53:20;;;;;;;;;;;;;;;;;;13001998;19;19935;-62
2023/06/22 06:57:39;;;;;;;;;;;;;;;;;;13002715;19;19925;-62
2023/06/22 07:01:56;;;;;;;;;;;;;;;;;;13002142;19;20331;-62
2023/06/22 07:06:16;;;;;;;;;;;;;;;;;;13001181;19;20263;-62
2023/06/22 07:10:34;;;;;;;;;;;;;;;;;;13001362;19;19939;-62
2023/06/22 07:14:53;;;;;;;;;;;;;;;;;;13001180;19;19931;-62
2023/06/22 07:19:12;;;;;;;;;;;;;;;;;;13000211;19;19915;-62
2023/06/22 07:23:30;;;;;;;;;;;;;;;;;;13000910;19;20283;-61
2023/06/22 07:27:59;;;;;;;;;;;;;;;;;;13000152;19;20267;-62
2023/06/22 07:32:17;;;;;;;;;;;;;;;;;;13000317;19;19978;-62
2023/06/22 07:36:35;;;;;;;;;;;;;;;;;;13000551;19;19911;-62
2023/06/22 07:40:54;;;;;;;;;;;;;;;;;;13000022;19;19922;-62
2023/06/22 07:45:11;;;;;;;;;;;;;;;;;;12998519;19;19935;-62
2023/06/22 07:49:29;;;;;;;;;;;;;;;;;;12997343;19;19970;-62
2023/06/22 07:53:47;;;;;;;;;;;;;;;;;;12999603;19;20255;-62
2023/06/22 07:58:05;;;;;;;;;;;;;;;;;;13010782;19;19919;-62
2023/06/22 08:02:23;;;;;;;;;;;;;;;;;;13012266;19;19923;-62
2023/06/22 08:06:43;;;;;;;;;;;;;;;;;;13010604;19;19910;-62
2023/06/22 08:11:01;;;;;;;;;;;;;;;;;;13009982;19;19923;-62
2023/06/22 08:15:19;;;;;;;;;;;;;;;;;;13010754;19;19914;-62
2023/06/22 08:19:37;;;;;;;;;;;;;;;;;;13011264;19;19923;-62
2023/06/22 08:23:56;;;;;;;;;;;;;;;;;;13010674;19;19919;-62
2023/06/22 08:28:13;;;;;;;;;;;;;;;;;;13008849;19;19934;-62
2023/06/22 08:32:34;;;;;;;;;;;;;;;;;;13009519;19;20240;-63
2023/06/22 08:36:52;;;;;;;;;;;;;;;;;;13009658;19;19926;-62
2023/06/22 08:41:11;;;;;;;;;;;;;;;;;;13009273;19;20331;-62
2023/06/22 08:45:28;;;;;;;;;;;;;;;;;;13008589;19;19922;-62
2023/06/22 08:49:47;;;;;;;;;;;;;;;;;;13008837;19;19910;-62
2023/06/22 08:54:04;;;;;;;;;;;;;;;;;;13008878;19;20358;-62
2023/06/22 08:58:24;;;;;;;;;;;;;;;;;;13008939;19;20251;-62
2023/06/22 09:02:42;;;;;;;;;;;;;;;;;;13007092;19;20331;-62
2023/06/22 09:07:01;;;;;;;;;;;;;;;;;;13006103;19;19922;-62
2023/06/22 09:11:19;;;;;;;;;;;;;;;;;;13007929;19;19911;-62
2023/06/22 09:15:37;;;;;;;;;;;;;;;;;;13007781;19;19923;-62
2023/06/22 09:19:54;;;;;;;;;;;;;;;;;;13007554;19;19915;-62
2023/06/22 09:24:12;;;;;;;;;;;;;;;;;;13006805;19;19914;-62
2023/06/22 09:28:30;;;;;;;;;;;;;;;;;;13006842;19;19910;-62
2023/06/22 09:32:49;;;;;;;;;;;;;;;;;;13006882;19;19921;-62
2023/06/22 09:37:06;;;;;;;;;;;;;;;;;;13006864;19;19911;-64
2023/06/22 09:41:24;;;;;;;;;;;;;;;;;;13006790;19;19919;-62
2023/06/22 09:45:42;;;;;;;;;;;;;;;;;;13005769;19;19915;-62
2023/06/22 09:50:00;;;;;;;;;;;;;;;;;;13006175;19;20218;-62
2023/06/22 09:54:18;;;;;;;;;;;;;;;;;;13005737;19;19919;-62
2023/06/22 09:58:36;;;;;;;;;;;;;;;;;;13006000;19;19915;-61
2023/06/22 10:02:53;;;;;;;;;;;;;;;;;;13005292;19;19918;-61
2023/06/22 10:07:15;;;;;;;;;;;;;;;;;;13004762;19;19914;-62
2023/06/22 10:11:34;;;;;;;;;;;;;;;;;;13004694;19;19934;-61
2023/06/22 10:15:53;;;;;;;;;;;;;;;;;;13004665;19;19935;-62
2023/06/22 10:20:11;;;;;;;;;;;;;;;;;;13003754;19;19911;-61
2023/06/22 10:24:30;;;;;;;;;;;;;;;;;;13004489;19;19923;-63
2023/06/22 10:28:47;;;;;;;;;;;;;;;;;;13003451;19;19919;-63
2023/06/22 10:33:07;;;;;;;;;;;;;;;;;;13004205;19;19915;-63
2023/06/22 10:37:27;;;;;;;;;;;;;;;;;;13004167;19;20434;-62
2023/06/22 10:41:44;;;;;;;;;;;;;;;;;;13001830;19;20048;-63
2023/06/22 10:46:03;;;;;;;;;;;;;;;;;;13001628;19;19911;-63
2023/06/22 10:50:20;;;;;;;;;;;;;;;;;;13002666;19;20278;-62
2023/06/22 10:54:39;;;;;;;;;;;;;;;;;;13002727;19;19935;-62
2023/06/22 10:58:56;;;;;;;;;;;;;;;;;;13003120;19;19918;-63
2023/06/22 11:03:14;;;;;;;;;;;;;;;;;;13001960;19;19943;-63
2023/06/22 11:07:33;;;;;;;;;;;;;;;;;;13000870;19;19911;-62
2023/06/22 11:11:53;;;;;;;;;;;;;;;;;;13001782;19;19915;-62
2023/06/22 11:16:10;;;;;;;;;;;;;;;;;;13000879;19;20280;-63
2023/06/22 11:20:28;;;;;;;;;;;;;;;;;;13001397;19;19939;-63
2023/06/22 11:24:46;;;;;;;;;;;;;;;;;;13000448;19;19921;-63
2023/06/22 11:29:05;;;;;;;;;;;;;;;;;;13000149;19;20234;-63
2023/06/22 11:33:24;;;;;;;;;;;;;;;;;;13014883;19;19930;-63
2023/06/22 11:37:42;;;;;;;;;;;;;;;;;;13013338;19;19910;-63
2023/06/22 11:42:02;;;;;;;;;;;;;;;;;;13012696;19;19913;-63
2023/06/22 11:46:20;;;;;;;;;;;;;;;;;;13010004;19;19933;-63
2023/06/22 11:50:38;;;;;;;;;;;;;;;;;;13013590;19;20258;-63
2023/06/22 11:54:56;;;;;;;;;;;;;;;;;;13013035;19;19919;-63
2023/06/22 11:59:14;;;;;;;;;;;;;;;;;;13010975;19;19929;-63
2023/06/22 12:03:32;;;;;;;;;;;;;;;;;;13011577;19;19921;-64
2023/06/22 12:07:53;;;;;;;;;;;;;;;;;;13010505;19;19923;-63
2023/06/22 12:12:11;;;;;;;;;;;;;;;;;;13009590;19;19922;-63
2023/06/22 12:16:29;;;;;;;;;;;;;;;;;;13011363;19;19911;-63
2023/06/22 12:20:47;;;;;;;;;;;;;;;;;;13010923;19;19914;-63
2023/06/22 12:25:06;;;;;;;;;;;;;;;;;;13009814;19;19941;-64
2023/06/22 12:29:23;;;;;;;;;;;;;;;;;;13009816;19;19914;-63
2023/06/22 12:33:41;;;;;;;;;;;;;;;;;;13010464;19;19911;-63
2023/06/22 12:37:59;;;;;;;;;;;;;;;;;;13010289;19;19910;-64
2023/06/22 12:42:17;;;;;;;;;;;;;;;;;;13006858;19;19926;-64
2023/06/22 12:46:37;;;;;;;;;;;;;;;;;;13009431;19;19919;-64
2023/06/22 12:50:55;;;;;;;;;;;;;;;;;;13010025;19;19918;-65
2023/06/22 12:55:13;;;;;;;;;;;;;;;;;;13008988;19;20351;-64
2023/06/22 12:59:31;;;;;;;;;;;;;;;;;;13009371;19;19972;-63
2023/06/22 13:03:50;;;;;;;;;;;;;;;;;;13008722;19;19935;-64
2023/06/22 13:08:08;;;;;;;;;;;;;;;;;;13007130;19;19907;-63
2023/06/22 13:12:29;;;;;;;;;;;;;;;;;;13008187;19;19911;-63
2023/06/22 13:16:48;;;;;;;;;;;;;;;;;;13008487;19;19919;-63
2023/06/22 13:21:05;;;;;;;;;;;;;;;;;;13007194;19;19934;-63
2023/06/22 13:25:26;;;;;;;;;;;;;;;;;;13007237;19;19930;-64
2023/06/22 13:29:45;;;;;;;;;;;;;;;;;;13006537;19;19915;-63
2023/06/22 13:34:02;;;;;;;;;;;;;;;;;;13005592;19;19925;-64
2023/06/22 13:38:20;;;;;;;;;;;;;;;;;;13006235;19;19914;-64
2023/06/22 13:42:38;;;;;;;;;;;;;;;;;;13007051;19;19934;-64
2023/06/22 13:46:56;;;;;;;;;;;;;;;;;;13005683;19;19925;-64
2023/06/22 13:51:14;;;;;;;;;;;;;;;;;;13005926;19;20264;-64
2023/06/22 13:55:31;;;;;;;;;;;;;;;;;;13004733;19;19955;-64
2023/06/22 13:59:49;;;;;;;;;;;;;;;;;;13006121;19;20382;-63
2023/06/22 14:04:07;;;;;;;;;;;;;;;;;;13005103;19;19922;-64
2023/06/22 14:08:25;;;;;;;;;;;;;;;;;;13004788;19;19926;-63
2023/06/22 14:12:59;;;;;;;;;;;;;;;;;;13004805;19;19926;-63
2023/06/22 14:17:25;;;;;;;;;;;;;;;;;;13004724;19;19919;-63
2023/06/22 14:21:43;;;;;;;;;;;;;;;;;;13004297;19;19922;-62
2023/06/22 14:26:01;;;;;;;;;;;;;;;;;;13003563;19;20331;-64
2023/06/22 14:30:19;;;;;;;;;;;;;;;;;;13003722;19;19923;-63
2023/06/22 14:34:39;;;;;;;;;;;;;;;;;;13004027;19;19911;-63
2023/06/22 14:39:00;;;;;;;;;;;;;;;;;;13003567;19;19911;-64
2023/06/22 14:43:17;;;;;;;;;;;;;;;;;;13001848;19;19910;-63
2023/06/22 14:47:36;;;;;;;;;;;;;;;;;;13002831;19;19921;-63
2023/06/22 14:51:55;;;;;;;;;;;;;;;;;;13003131;19;19914;-64
2023/06/22 14:56:14;;;;;;;;;;;;;;;;;;13002816;19;19911;-64
2023/06/22 15:00:33;;;;;;;;;;;;;;;;;;13001225;19;19914;-63
2023/06/22 15:04:50;;;;;;;;;;;;;;;;;;12998662;19;19915;-63
2023/06/22 15:09:08;;;;;;;;;;;;;;;;;;13001351;19;19926;-64
2023/06/22 15:13:26;;;;;;;;;;;;;;;;;;13001315;19;19919;-64
2023/06/22 15:17:44;;;;;;;;;;;;;;;;;;13001270;19;19918;-63
2023/06/22 15:22:04;;;;;;;;;;;;;;;;;;13000630;19;19930;-64
2023/06/22 15:26:22;;;;;;;;;;;;;;;;;;13000740;19;19953;-64
2023/06/22 15:30:39;;;;;;;;;;;;;;;;;;13001272;19;20233;-64
2023/06/22 15:34:57;;;;;;;;;;;;;;;;;;13001328;19;20222;-64
2023/06/22 15:39:16;;;;;;;;;;;;;;;;;;12998673;19;20326;-64
2023/06/22 15:43:34;;;;;;;;;;;;;;;;;;13000163;19;20278;-64
2023/06/22 15:47:52;;;;;;;;;;;;;;;;;;12999117;19;19914;-64
2023/06/22 15:52:11;;;;;;;;;;;;;;;;;;12999915;19;19914;-64
2023/06/22 15:56:30;;;;;;;;;;;;;;;;;;12999647;19;20036;-65
2023/06/22 16:00:48;;;;;;;;;;;;;;;;;;12999375;19;19939;-64
2023/06/22 16:05:09;;;;;;;;;;;;;;;;;;12996801;19;19942;-64
2023/06/22 16:09:29;;;;;;;;;;;;;;;;;;12999569;19;19918;-63
2023/06/22 16:13:47;;;;;;;;;;;;;;;;;;12998531;19;19911;-63
2023/06/22 16:18:04;;;;;;;;;;;;;;;;;;13007422;19;19935;-63
2023/06/22 16:22:24;;;;;;;;;;;;;;;;;;13010946;19;19934;-63
2023/06/22 16:26:43;;;;;;;;;;;;;;;;;;13009357;19;19915;-63
2023/06/22 16:31:01;;;;;;;;;;;;;;;;;;13008593;19;20354;-63
2023/06/22 16:35:18;;;;;;;;;;;;;;;;;;12972320;19;20014;-63
2023/06/22 16:39:35;;;;;;;;;;;;;;;;;;12986661;19;20339;-63
2023/06/22 16:43:54;;;;;;;;;;;;;;;;;;12987676;19;19915;-62
2023/06/22 16:48:13;;;;;;;;;;;;;;;;;;12985686;19;19959;-63
2023/06/22 16:52:30;;;;;;;;;;;;;;;;;;12990470;19;20271;-63
2023/06/22 16:56:48;;;;;;;;;;;;;;;;;;12990460;19;19929;-63
2023/06/22 17:01:09;;;;;;;;;;;;;;;;;;12989538;19;19919;-64
2023/06/22 17:05:27;;;;;;;;;;;;;;;;;;12988454;19;19922;-62
2023/06/22 17:09:47;;;;;;;;;;;;;;;;;;12989924;19;20452;-63
2023/06/22 17:14:06;;;;;;;;;;;;;;;;;;12987990;19;19926;-63
2023/06/22 17:18:25;;;;;;;;;;;;;;;;;;12988939;19;19911;-63
2023/06/22 17:22:45;;;;;;;;;;;;;;;;;;12988620;19;19918;-63
2023/06/22 17:27:03;;;;;;;;;;;;;;;;;;12983838;19;20282;-63
2023/06/22 17:31:21;;;;;;;;;;;;;;;;;;12987980;19;19946;-63
2023/06/22 17:35:47;;;;;;;;;;;;;;;;;;12987177;19;19919;-63
2023/06/22 17:40:13;;;;;;;;;;;;;;;;;;12986449;19;19929;-63
2023/06/22 17:44:31;;;;;;;;;;;;;;;;;;12985387;19;19914;-63
2023/06/22 17:48:49;;;;;;;;;;;;;;;;;;12986268;19;20372;-63
2023/06/22 17:53:11;;;;;;;;;;;;;;;;;;12985528;19;19911;-62
2023/06/22 17:57:38;;;;;;;;;;;;;;;;;;12986131;19;19929;-62
2023/06/22 18:01:55;;;;;;;;;;;;;;;;;;12985787;19;19922;-63
2023/06/22 18:06:15;;;;;;;;;;;;;;;;;;12982960;19;19951;-63
2023/06/22 18:10:35;;;;;;;;;;;;;;;;;;12984995;19;19956;-62
2023/06/22 18:14:53;;;;;;;;;;;;;;;;;;12982665;19;20268;-63
2023/06/22 18:19:13;;;;;;;;;;;;;;;;;;12982660;19;20347;-62
2023/06/22 18:23:35;;;;;;;;;;;;;;;;;;12984583;19;19918;-62
2023/06/22 18:27:55;;;;;;;;;;;;;;;;;;12983003;19;19919;-63
2023/06/22 18:32:13;;;;;;;;;;;;;;;;;;12982687;19;19956;-63
2023/06/22 18:36:37;;;;;;;;;;;;;;;;;;12982537;19;19915;-63
2023/06/22 18:40:55;;;;;;;;;;;;;;;;;;12982402;19;19932;-62
2023/06/22 18:45:23;;;;;;;;;;;;;;;;;;12981579;19;20365;-62
2023/06/22 18:49:41;;;;;;;;;;;;;;;;;;12983867;19;19926;-62
2023/06/22 18:54:04;;;;;;;;;;;;;;;;;;12982791;19;19918;-62
2023/06/22 18:58:25;;;;;;;;;;;;;;;;;;12982631;19;19926;-63
2023/06/22 19:02:46;;;;;;;;;;;;;;;;;;12982268;19;19919;-63
2023/06/22 19:07:08;;;;;;;;;;;;;;;;;;12981105;19;19915;-64
2023/06/22 19:11:28;;;;;;;;;;;;;;;;;;12982205;19;19959;-63
2023/06/22 19:15:50;;;;;;;;;;;;;;;;;;12981472;19;19919;-63
2023/06/22 19:20:10;;;;;;;;;;;;;;;;;;12980804;19;19922;-62
2023/06/22 19:24:46;;;;;;;;;;;;;;;;;;12980720;19;19919;-63
2023/06/22 19:29:15;;;;;;;;;;;;;;;;;;12979202;19;19915;-63
2023/06/22 19:33:33;;;;;;;;;;;;;;;;;;12981005;19;20346;-63
2023/06/22 19:37:51;;;;;;;;;;;;;;;;;;12980824;19;19918;-63
2023/06/22 19:42:09;;;;;;;;;;;;;;;;;;12980464;19;20338;-63
2023/06/22 19:46:30;;;;;;;;;;;;;;;;;;12980937;19;19942;-63
2023/06/22 19:50:48;;;;;;;;;;;;;;;;;;12984000;19;19911;-63
2023/06/22 19:55:15;;;;;;;;;;;;;;;;;;12990692;19;20256;-63
2023/06/22 19:59:33;;;;;;;;;;;;;;;;;;12992967;19;19922;-63
2023/06/22 20:03:55;;;;;;;;;;;;;;;;;;12992896;19;20338;-63
2023/06/22 20:08:13;;;;;;;;;;;;;;;;;;12988349;19;20333;-63
2023/06/22 20:12:32;;;;;;;;;;;;;;;;;;12991961;19;19952;-64
2023/06/22 20:16:55;;;;;;;;;;;;;;;;;;12990985;19;19910;-64
2023/06/22 20:21:13;;;;;;;;;;;;;;;;;;12990780;19;20339;-63
2023/06/22 20:25:35;;;;;;;;;;;;;;;;;;12990211;19;20331;-63
2023/06/22 20:29:54;;;;;;;;;;;;;;;;;;12989433;19;20330;-62
2023/06/22 20:34:12;;;;;;;;;;;;;;;;;;12988287;19;19927;-63
2023/06/22 20:38:32;;;;;;;;;;;;;;;;;;12990529;19;19919;-62
2023/06/22 20:42:49;;;;;;;;;;;;;;;;;;12990141;19;19949;-63
2023/06/22 20:47:10;;;;;;;;;;;;;;;;;;12987973;19;19915;-64
2023/06/22 20:51:27;;;;;;;;;;;;;;;;;;12989195;19;19926;-63
2023/06/22 20:55:46;;;;;;;;;;;;;;;;;;12989298;19;20231;-63
2023/06/22 21:00:06;;;;;;;;;;;;;;;;;;12988762;19;19919;-63
2023/06/22 21:04:23;;;;;;;;;;;;;;;;;;12986123;19;19914;-63
2023/06/22 21:08:41;;;;;;;;;;;;;;;;;;12985692;19;20377;-62
2023/06/22 21:13:00;;;;;;;;;;;;;;;;;;12989101;19;19919;-63
2023/06/22 21:17:18;;;;;;;;;;;;;;;;;;12988468;19;19946;-63
2023/06/22 21:21:37;;;;;;;;;;;;;;;;;;12988692;19;19933;-63
2023/06/22 21:25:55;;;;;;;;;;;;;;;;;;12986533;19;19923;-63
2023/06/22 21:30:15;;;;;;;;;;;;;;;;;;12986349;19;19943;-63
2023/06/22 21:34:33;;;;;;;;;;;;;;;;;;12987784;19;20901;-63
2023/06/22 21:38:51;;;;;;;;;;;;;;;;;;12987000;19;19911;-63
2023/06/22 21:43:12;;;;;;;;;;;;;;;;;;12985756;19;19952;-64
2023/06/22 21:47:29;;;;;;;;;;;;;;;;;;12985772;19;19934;-64
2023/06/22 21:51:47;;;;;;;;;;;;;;;;;;12984158;19;19951;-63
2023/06/22 21:56:04;;;;;;;;;;;;;;;;;;12985225;19;19925;-63
2023/06/22 22:00:22;;;;;;;;;;;;;;;;;;12986103;19;20538;-63
2023/06/22 22:04:39;;;;;;;;;;;;;;;;;;12985202;19;19923;-63
2023/06/22 22:08:57;;;;;;;;;;;;;;;;;;12984707;19;19923;-63
2023/06/22 22:13:18;;;;;;;;;;;;;;;;;;12983240;19;20607;-63
2023/06/22 22:17:36;;;;;;;;;;;;;;;;;;12985762;19;20382;-63
2023/06/22 22:21:53;;;;;;;;;;;;;;;;;;12983227;19;19923;-62
2023/06/22 22:26:11;;;;;;;;;;;;;;;;;;12970244;19;20604;-63
2023/06/22 22:30:29;;;;;;;;;;;;;;;;;;12983239;19;20289;-64
2023/06/22 22:34:47;;;;;;;;;;;;;;;;;;12984059;19;19915;-64
2023/06/22 22:39:05;;;;;;;;;;;;;;;;;;12982849;19;19918;-63
2023/06/22 22:43:22;;;;;;;;;;;;;;;;;;12983347;19;20263;-63
2023/06/22 22:47:40;;;;;;;;;;;;;;;;;;12982939;19;19923;-64
2023/06/22 22:51:58;;;;;;;;;;;;;;;;;;12983295;19;19915;-63
2023/06/22 22:56:16;;;;;;;;;;;;;;;;;;12982591;19;19918;-63
2023/06/22 23:00:33;;;;;;;;;;;;;;;;;;12982870;19;19943;-64
2023/06/22 23:04:55;;;;;;;;;;;;;;;;;;12981312;19;19927;-64
2023/06/22 23:09:14;;;;;;;;;;;;;;;;;;12980869;19;19948;-63
2023/06/22 23:13:33;;;;;;;;;;;;;;;;;;12979771;19;20323;-62
2023/06/22 23:17:51;;;;;;;;;;;;;;;;;;12982149;19;19922;-62
2023/06/22 23:22:11;;;;;;;;;;;;;;;;;;12981418;19;20267;-63
2023/06/22 23:26:29;;;;;;;;;;;;;;;;;;12985587;19;19922;-63
2023/06/22 23:30:47;;;;;;;;;;;;;;;;;;12994256;19;19914;-63
2023/06/22 23:35:09;;;;;;;;;;;;;;;;;;12993172;19;19919;-62
2023/06/22 23:39:28;;;;;;;;;;;;;;;;;;12994520;19;19951;-63
2023/06/22 23:43:46;;;;;;;;;;;;;;;;;;12993860;19;20369;-63
2023/06/22 23:48:03;;;;;;;;;;;;;;;;;;12992164;19;19911;-62
2023/06/22 23:52:21;;;;;;;;;;;;;;;;;;12992696;19;19931;-63
2023/06/22 23:56:39;;;;;;;;;;;;;;;;;;12992940;19;19925;-63
